sensor_id;sensor_type;location;lat;lon;timestamp;pressure;altitude;pressure_sealevel;temperature;humidity
44131;BME280;29792;48.726;9.248;2022-12-18T00:01:31;97944.31;;;-9.05;100.00
44131;BME280;29792;48.726;9.248;2022-12-18T00:03:58;97946.78;;;-9.05;100.00
44131;BME280;29792;48.726;9.248;2022-12-18T00:06:25;97949.28;;;-9.05;100.00
44131;BME280;29792;48.726;9.248;2022-12-18T00:08:51;97950.94;;;-9.04;100.00
44131;BME280;29792;48.726;9.248;2022-12-18T00:11:20;97962.53;;;-9.03;100.00
44131;BME280;29792;48.726;9.248;2022-12-18T00:13:46;97957.56;;;-9.05;100.00
44131;BME280;29792;48.726;9.248;2022-12-18T00:16:14;97948.44;;;-9.06;100.00
44131;BME280;29792;48.726;9.248;2022-12-18T00:18:40;97954.25;;;-9.04;100.00
44131;BME280;29792;48.726;9.248;2022-12-18T00:21:07;97949.31;;;-9.02;100.00
44131;BME280;29792;48.726;9.248;2022-12-18T00:23:34;97954.22;;;-9.05;100.00
44131;BME280;29792;48.726;9.248;2022-12-18T00:26:01;97958.34;;;-9.07;100.00
44131;BME280;29792;48.726;9.248;2022-12-18T00:28:27;97957.47;;;-9.12;100.00
44131;BME280;29792;48.726;9.248;2022-12-18T00:31:20;97957.41;;;-9.15;100.00
44131;BME280;29792;48.726;9.248;2022-12-18T00:33:46;97956.56;;;-9.19;100.00
44131;BME280;29792;48.726;9.248;2022-12-18T00:36:19;97947.38;;;-9.26;100.00
44131;BME280;29792;48.726;9.248;2022-12-18T00:38:45;97949.03;;;-9.27;100.00
44131;BME280;29792;48.726;9.248;2022-12-18T00:41:12;97961.44;;;-9.27;100.00
44131;BME280;29792;48.726;9.248;2022-12-18T00:43:39;97963.94;;;-9.25;100.00
44131;BME280;29792;48.726;9.248;2022-12-18T00:46:05;97959.78;;;-9.26;100.00
44131;BME280;29792;48.726;9.248;2022-12-18T00:48:30;97969.66;;;-9.28;100.00
44131;BME280;29792;48.726;9.248;2022-12-18T00:50:56;97973.81;;;-9.27;100.00
44131;BME280;29792;48.726;9.248;2022-12-18T00:53:21;97972.19;;;-9.24;100.00
44131;BME280;29792;48.726;9.248;2022-12-18T00:55:47;97973.00;;;-9.26;100.00
44131;BME280;29792;48.726;9.248;2022-12-18T00:58:14;97968.03;;;-9.27;100.00
44131;BME280;29792;48.726;9.248;2022-12-18T01:00:39;97969.66;;;-9.29;100.00
44131;BME280;29792;48.726;9.248;2022-12-18T01:03:05;97967.16;;;-9.29;100.00
44131;BME280;29792;48.726;9.248;2022-12-18T01:05:31;97968.06;;;-9.26;100.00
44131;BME280;29792;48.726;9.248;2022-12-18T01:07:56;97971.38;;;-9.25;100.00
44131;BME280;29792;48.726;9.248;2022-12-18T01:10:23;97967.22;;;-9.26;100.00
44131;BME280;29792;48.726;9.248;2022-12-18T01:12:49;97967.19;;;-9.28;100.00
44131;BME280;29792;48.726;9.248;2022-12-18T01:15:15;97959.69;;;-9.34;100.00
44131;BME280;29792;48.726;9.248;2022-12-18T01:17:41;97967.94;;;-9.35;100.00
44131;BME280;29792;48.726;9.248;2022-12-18T01:20:07;97968.69;;;-9.40;100.00
44131;BME280;29792;48.726;9.248;2022-12-18T01:22:33;97956.22;;;-9.45;100.00
44131;BME280;29792;48.726;9.248;2022-12-18T01:24:59;97963.59;;;-9.48;100.00
44131;BME280;29792;48.726;9.248;2022-12-18T01:27:24;97961.09;;;-9.51;100.00
44131;BME280;29792;48.726;9.248;2022-12-18T01:29:49;97970.94;;;-9.57;100.00
44131;BME280;29792;48.726;9.248;2022-12-18T01:32:14;97974.09;;;-9.64;100.00
44131;BME280;29792;48.726;9.248;2022-12-18T01:34:40;97983.06;;;-9.72;100.00
44131;BME280;29792;48.726;9.248;2022-12-18T01:37:05;97972.31;;;-9.76;100.00
44131;BME280;29792;48.726;9.248;2022-12-18T01:39:31;97967.31;;;-9.77;100.00
44131;BME280;29792;48.726;9.248;2022-12-18T01:41:58;97965.63;;;-9.80;100.00
44131;BME280;29792;48.726;9.248;2022-12-18T01:47:27;97976.31;;;-9.84;100.00
44131;BME280;29792;48.726;9.248;2022-12-18T01:49:55;97977.84;;;-9.92;100.00
44131;BME280;29792;48.726;9.248;2022-12-18T01:52:21;97981.06;;;-9.97;100.00
44131;BME280;29792;48.726;9.248;2022-12-18T01:54:48;97975.25;;;-9.99;100.00
44131;BME280;29792;48.726;9.248;2022-12-18T01:57:15;97976.09;;;-9.96;100.00
44131;BME280;29792;48.726;9.248;2022-12-18T01:59:42;97983.66;;;-9.90;100.00
44131;BME280;29792;48.726;9.248;2022-12-18T02:02:10;97974.69;;;-9.80;100.00
44131;BME280;29792;48.726;9.248;2022-12-18T02:04:36;97970.72;;;-9.71;100.00
44131;BME280;29792;48.726;9.248;2022-12-18T02:07:14;97970.06;;;-9.59;100.00
44131;BME280;29792;48.726;9.248;2022-12-18T02:09:51;97969.38;;;-9.50;100.00
44131;BME280;29792;48.726;9.248;2022-12-18T02:12:23;97953.72;;;-9.45;100.00
44131;BME280;29792;48.726;9.248;2022-12-18T02:14:55;97965.41;;;-9.38;100.00
44131;BME280;29792;48.726;9.248;2022-12-18T02:17:34;97967.94;;;-9.35;100.00
44131;BME280;29792;48.726;9.248;2022-12-18T02:20:21;97963.00;;;-9.30;100.00
44131;BME280;29792;48.726;9.248;2022-12-18T02:26:18;97972.94;;;-9.30;100.00
44131;BME280;29792;48.726;9.248;2022-12-18T02:28:53;97973.66;;;-9.37;100.00
44131;BME280;29792;48.726;9.248;2022-12-18T02:31:23;97964.44;;;-9.47;100.00
44131;BME280;29792;48.726;9.248;2022-12-18T02:33:53;97971.75;;;-9.55;100.00
44131;BME280;29792;48.726;9.248;2022-12-18T02:36:21;97974.28;;;-9.53;100.00
44131;BME280;29792;48.726;9.248;2022-12-18T02:38:47;97978.41;;;-9.52;100.00
44131;BME280;29792;48.726;9.248;2022-12-18T02:41:14;97981.72;;;-9.53;100.00
44131;BME280;29792;48.726;9.248;2022-12-18T02:43:40;97983.34;;;-9.54;100.00
44131;BME280;29792;48.726;9.248;2022-12-18T02:46:35;97985.03;;;-9.53;100.00
44131;BME280;29792;48.726;9.248;2022-12-18T02:52:02;97996.56;;;-9.55;100.00
44131;BME280;29792;48.726;9.248;2022-12-18T02:54:36;97991.56;;;-9.58;100.00
44131;BME280;29792;48.726;9.248;2022-12-18T02:57:15;97995.63;;;-9.61;100.00
44131;BME280;29792;48.726;9.248;2022-12-18T03:02:31;97998.00;;;-9.69;100.00
44131;BME280;29792;48.726;9.248;2022-12-18T03:05:10;97989.56;;;-9.80;100.00
44131;BME280;29792;48.726;9.248;2022-12-18T03:07:52;97992.84;;;-9.83;100.00
44131;BME280;29792;48.726;9.248;2022-12-18T03:10:25;97978.69;;;-9.88;100.00
44131;BME280;29792;48.726;9.248;2022-12-18T03:12:56;97977.81;;;-9.93;100.00
44131;BME280;29792;48.726;9.248;2022-12-18T03:15:28;97989.41;;;-9.91;100.00
44131;BME280;29792;48.726;9.248;2022-12-18T03:18:07;97991.88;;;-9.92;100.00
44131;BME280;29792;48.726;9.248;2022-12-18T03:20:36;97986.00;;;-9.96;100.00
44131;BME280;29792;48.726;9.248;2022-12-18T03:23:09;97993.47;;;-9.94;100.00
44131;BME280;29792;48.726;9.248;2022-12-18T03:25:39;97995.09;;;-9.96;100.00
44131;BME280;29792;48.726;9.248;2022-12-18T03:28:10;98000.03;;;-9.98;100.00
44131;BME280;29792;48.726;9.248;2022-12-18T03:30:38;98010.78;;;-9.97;100.00
44131;BME280;29792;48.726;9.248;2022-12-18T03:33:38;98001.59;;;-10.03;100.00
44131;BME280;29792;48.726;9.248;2022-12-18T03:36:06;98012.34;;;-10.03;100.00
44131;BME280;29792;48.726;9.248;2022-12-18T03:38:31;98009.00;;;-10.05;100.00
44131;BME280;29792;48.726;9.248;2022-12-18T03:41:03;98003.13;;;-10.10;100.00
44131;BME280;29792;48.726;9.248;2022-12-18T03:43:39;98006.31;;;-10.18;100.00
44131;BME280;29792;48.726;9.248;2022-12-18T03:46:15;98011.25;;;-10.21;100.00
44131;BME280;29792;48.726;9.248;2022-12-18T03:48:45;98006.25;;;-10.23;100.00
44131;BME280;29792;48.726;9.248;2022-12-18T03:51:24;98002.88;;;-10.26;100.00
44131;BME280;29792;48.726;9.248;2022-12-18T03:53:58;98003.63;;;-10.32;100.00
44131;BME280;29792;48.726;9.248;2022-12-18T03:56:29;98001.88;;;-10.36;100.00
44131;BME280;29792;48.726;9.248;2022-12-18T03:58:56;98006.78;;;-10.39;100.00
44131;BME280;29792;48.726;9.248;2022-12-18T04:01:29;98010.84;;;-10.43;100.00
44131;BME280;29792;48.726;9.248;2022-12-18T04:03:56;98004.13;;;-10.50;100.00
44131;BME280;29792;48.726;9.248;2022-12-18T04:06:23;98008.06;;;-10.59;100.00
44131;BME280;29792;48.726;9.248;2022-12-18T04:08:48;98007.03;;;-10.70;100.00
44131;BME280;29792;48.726;9.248;2022-12-18T04:11:15;98006.06;;;-10.77;100.00
44131;BME280;29792;48.726;9.248;2022-12-18T04:13:42;98005.16;;;-10.82;100.00
44131;BME280;29792;48.726;9.248;2022-12-18T04:16:07;98005.06;;;-10.87;100.00
44131;BME280;29792;48.726;9.248;2022-12-18T04:18:34;98006.59;;;-10.92;100.00
44131;BME280;29792;48.726;9.248;2022-12-18T04:21:01;97995.81;;;-10.97;100.00
44131;BME280;29792;48.726;9.248;2022-12-18T04:23:26;98002.28;;;-11.02;100.00
44131;BME280;29792;48.726;9.248;2022-12-18T04:25:52;98012.19;;;-11.00;100.00
44131;BME280;29792;48.726;9.248;2022-12-18T04:28:17;98008.13;;;-10.98;100.00
44131;BME280;29792;48.726;9.248;2022-12-18T04:30:42;98000.75;;;-10.97;100.00
44131;BME280;29792;48.726;9.248;2022-12-18T04:33:12;98009.00;;;-10.96;100.00
44131;BME280;29792;48.726;9.248;2022-12-18T04:35:39;98011.28;;;-11.05;100.00
44131;BME280;29792;48.726;9.248;2022-12-18T04:38:08;98013.66;;;-11.10;100.00
44131;BME280;29792;48.726;9.248;2022-12-18T04:40:34;98022.66;;;-11.13;100.00
44131;BME280;29792;48.726;9.248;2022-12-18T04:42:59;98029.31;;;-11.09;100.00
44131;BME280;29792;48.726;9.248;2022-12-18T04:45:24;98028.47;;;-11.10;100.00
44131;BME280;29792;48.726;9.248;2022-12-18T04:47:50;98030.91;;;-11.13;100.00
44131;BME280;29792;48.726;9.248;2022-12-18T04:50:15;98027.41;;;-11.23;100.00
44131;BME280;29792;48.726;9.248;2022-12-18T04:52:40;98014.88;;;-11.30;100.00
44131;BME280;29792;48.726;9.248;2022-12-18T04:55:06;98009.84;;;-11.35;100.00
44131;BME280;29792;48.726;9.248;2022-12-18T04:57:31;98007.25;;;-11.39;100.00
44131;BME280;29792;48.726;9.248;2022-12-18T04:59:56;98004.66;;;-11.45;100.00
44131;BME280;29792;48.726;9.248;2022-12-18T05:02:22;97997.13;;;-11.50;100.00
44131;BME280;29792;48.726;9.248;2022-12-18T05:04:47;97999.44;;;-11.58;100.00
44131;BME280;29792;48.726;9.248;2022-12-18T05:07:12;97992.69;;;-11.65;100.00
44131;BME280;29792;48.726;9.248;2022-12-18T05:09:38;97987.66;;;-11.69;100.00
44131;BME280;29792;48.726;9.248;2022-12-18T05:12:03;97998.34;;;-11.70;100.00
44131;BME280;29792;48.726;9.248;2022-12-18T05:14:28;97998.25;;;-11.73;100.00
44131;BME280;29792;48.726;9.248;2022-12-18T05:16:54;97994.06;;;-11.79;100.00
44131;BME280;29792;48.726;9.248;2022-12-18T05:19:19;97995.75;;;-11.78;100.00
44131;BME280;29792;48.726;9.248;2022-12-18T05:21:45;98000.69;;;-11.78;100.00
44131;BME280;29792;48.726;9.248;2022-12-18T05:24:10;98014.56;;;-11.81;100.00
44131;BME280;29792;48.726;9.248;2022-12-18T05:26:35;98007.00;;;-11.89;100.00
44131;BME280;29792;48.726;9.248;2022-12-18T05:29:00;98016.72;;;-11.95;100.00
44131;BME280;29792;48.726;9.248;2022-12-18T05:31:26;98020.78;;;-11.97;100.00
44131;BME280;29792;48.726;9.248;2022-12-18T05:33:51;98024.19;;;-11.93;100.00
44131;BME280;29792;48.726;9.248;2022-12-18T05:36:16;98024.28;;;-11.89;100.00
44131;BME280;29792;48.726;9.248;2022-12-18T05:38:42;98025.25;;;-11.84;100.00
44131;BME280;29792;48.726;9.248;2022-12-18T05:41:08;98028.59;;;-11.80;100.00
44131;BME280;29792;48.726;9.248;2022-12-18T05:43:35;98023.78;;;-11.76;100.00
44131;BME280;29792;48.726;9.248;2022-12-18T05:46:09;98017.16;;;-11.77;100.00
44131;BME280;29792;48.726;9.248;2022-12-18T05:48:36;98021.31;;;-11.73;100.00
44131;BME280;29792;48.726;9.248;2022-12-18T05:51:07;98025.56;;;-11.69;100.00
44131;BME280;29792;48.726;9.248;2022-12-18T05:53:32;98020.66;;;-11.67;100.00
44131;BME280;29792;48.726;9.248;2022-12-18T05:56:03;98020.63;;;-11.69;100.00
44131;BME280;29792;48.726;9.248;2022-12-18T05:58:29;98018.94;;;-11.70;100.00
44131;BME280;29792;48.726;9.248;2022-12-18T06:00:55;98019.69;;;-11.72;100.00
44131;BME280;29792;48.726;9.248;2022-12-18T06:03:20;98013.06;;;-11.75;100.00
44131;BME280;29792;48.726;9.248;2022-12-18T06:05:46;98008.16;;;-11.73;100.00
44131;BME280;29792;48.726;9.248;2022-12-18T06:08:12;98004.03;;;-11.76;100.00
44131;BME280;29792;48.726;9.248;2022-12-18T06:10:37;98009.72;;;-11.78;100.00
44131;BME280;29792;48.726;9.248;2022-12-18T06:13:03;98020.44;;;-11.78;100.00
44131;BME280;29792;48.726;9.248;2022-12-18T06:15:29;98020.47;;;-11.76;100.00
44131;BME280;29792;48.726;9.248;2022-12-18T06:17:54;98033.66;;;-11.76;100.00
44131;BME280;29792;48.726;9.248;2022-12-18T06:20:20;98026.22;;;-11.77;100.00
44131;BME280;29792;48.726;9.248;2022-12-18T06:22:45;98023.00;;;-11.72;100.00
44131;BME280;29792;48.726;9.248;2022-12-18T06:25:10;98018.06;;;-11.72;100.00
44131;BME280;29792;48.726;9.248;2022-12-18T06:27:36;98016.38;;;-11.73;100.00
44131;BME280;29792;48.726;9.248;2022-12-18T06:30:02;98018.00;;;-11.75;100.00
44131;BME280;29792;48.726;9.248;2022-12-18T06:32:27;98024.41;;;-11.83;100.00
44131;BME280;29792;48.726;9.248;2022-12-18T06:34:53;98035.91;;;-11.85;100.00
44131;BME280;29792;48.726;9.248;2022-12-18T06:37:19;98039.09;;;-11.89;100.00
44131;BME280;29792;48.726;9.248;2022-12-18T06:39:44;98033.22;;;-11.94;100.00
44131;BME280;29792;48.726;9.248;2022-12-18T06:42:09;98042.22;;;-11.96;100.00
44131;BME280;29792;48.726;9.248;2022-12-18T06:44:35;98046.28;;;-11.98;100.00
44131;BME280;29792;48.726;9.248;2022-12-18T06:47:00;98050.38;;;-11.99;100.00
44131;BME280;29792;48.726;9.248;2022-12-18T06:49:25;98046.31;;;-11.97;100.00
44131;BME280;29792;48.726;9.248;2022-12-18T06:51:51;98047.16;;;-11.96;100.00
44131;BME280;29792;48.726;9.248;2022-12-18T06:54:16;98036.44;;;-11.97;100.00
44131;BME280;29792;48.726;9.248;2022-12-18T06:56:42;98036.53;;;-11.93;100.00
44131;BME280;29792;48.726;9.248;2022-12-18T06:59:09;98036.56;;;-11.90;100.00
44131;BME280;29792;48.726;9.248;2022-12-18T07:01:34;98034.34;;;-11.81;100.00
44131;BME280;29792;48.726;9.248;2022-12-18T07:04:00;98050.19;;;-11.72;100.00
44131;BME280;29792;48.726;9.248;2022-12-18T07:06:25;98047.91;;;-11.63;100.00
44131;BME280;29792;48.726;9.248;2022-12-18T07:08:52;98053.00;;;-11.57;100.00
44131;BME280;29792;48.726;9.248;2022-12-18T07:11:18;98056.38;;;-11.53;100.00
44131;BME280;29792;48.726;9.248;2022-12-18T07:13:44;98057.25;;;-11.51;100.00
44131;BME280;29792;48.726;9.248;2022-12-18T07:16:12;98063.84;;;-11.51;100.00
44131;BME280;29792;48.726;9.248;2022-12-18T07:18:38;98067.25;;;-11.46;100.00
44131;BME280;29792;48.726;9.248;2022-12-18T07:21:04;98065.69;;;-11.41;100.00
44131;BME280;29792;48.726;9.248;2022-12-18T07:23:32;98058.41;;;-11.37;100.00
44131;BME280;29792;48.726;9.248;2022-12-18T07:26:01;98068.50;;;-11.26;100.00
44131;BME280;29792;48.726;9.248;2022-12-18T07:28:27;98074.44;;;-11.18;100.00
44131;BME280;29792;48.726;9.248;2022-12-18T07:30:52;98074.66;;;-11.09;100.00
44131;BME280;29792;48.726;9.248;2022-12-18T07:33:17;98070.75;;;-10.99;100.00
44131;BME280;29792;48.726;9.248;2022-12-18T07:35:43;98076.09;;;-10.81;100.00
44131;BME280;29792;48.726;9.248;2022-12-18T07:38:08;98071.38;;;-10.70;100.00
44131;BME280;29792;48.726;9.248;2022-12-18T07:40:33;98073.19;;;-10.62;100.00
44131;BME280;29792;48.726;9.248;2022-12-18T07:42:59;98077.59;;;-10.47;100.00
44131;BME280;29792;48.726;9.248;2022-12-18T07:45:24;98074.47;;;-10.37;100.00
44131;BME280;29792;48.726;9.248;2022-12-18T07:47:49;98072.31;;;-10.22;100.00
44131;BME280;29792;48.726;9.248;2022-12-18T07:50:15;98081.56;;;-10.10;100.00
44131;BME280;29792;48.726;9.248;2022-12-18T07:52:40;98081.72;;;-10.01;100.00
44131;BME280;29792;48.726;9.248;2022-12-18T07:55:06;98070.47;;;-9.84;100.00
44131;BME280;29792;48.726;9.248;2022-12-18T07:57:31;98073.13;;;-9.73;100.00
44131;BME280;29792;48.726;9.248;2022-12-18T07:59:56;98079.75;;;-9.71;100.00
44131;BME280;29792;48.726;9.248;2022-12-18T08:02:22;98081.53;;;-9.65;100.00
44131;BME280;29792;48.726;9.248;2022-12-18T08:04:47;98084.97;;;-9.57;100.00
44131;BME280;29792;48.726;9.248;2022-12-18T08:07:12;98078.44;;;-9.50;100.00
44131;BME280;29792;48.726;9.248;2022-12-18T08:09:38;98081.13;;;-9.37;100.00
44131;BME280;29792;48.726;9.248;2022-12-18T08:12:03;98081.31;;;-9.24;100.00
44131;BME280;29792;48.726;9.248;2022-12-18T08:14:28;98084.84;;;-9.10;100.00
44131;BME280;29792;48.726;9.248;2022-12-18T08:16:54;98088.50;;;-8.85;100.00
44131;BME280;29792;48.726;9.248;2022-12-18T08:19:19;98088.91;;;-8.54;100.00
44131;BME280;29792;48.726;9.248;2022-12-18T08:21:44;98085.78;;;-8.34;100.00
44131;BME280;29792;48.726;9.248;2022-12-18T08:24:10;98089.16;;;-8.26;100.00
44131;BME280;29792;48.726;9.248;2022-12-18T08:26:36;98081.78;;;-8.22;100.00
44131;BME280;29792;48.726;9.248;2022-12-18T08:29:01;98091.75;;;-8.17;100.00
44131;BME280;29792;48.726;9.248;2022-12-18T08:31:28;98076.09;;;-8.12;100.00
44131;BME280;29792;48.726;9.248;2022-12-18T08:33:54;98086.78;;;-8.17;100.00
44131;BME280;29792;48.726;9.248;2022-12-18T08:36:21;98071.09;;;-8.13;100.00
44131;BME280;29792;48.726;9.248;2022-12-18T08:38:46;98081.91;;;-8.08;100.00
44131;BME280;29792;48.726;9.248;2022-12-18T08:41:13;98076.22;;;-7.98;100.00
44131;BME280;29792;48.726;9.248;2022-12-18T08:43:40;98078.03;;;-7.82;100.00
44131;BME280;29792;48.726;9.248;2022-12-18T08:46:26;98074.13;;;-7.57;100.00
44131;BME280;29792;48.726;9.248;2022-12-18T08:48:52;98076.00;;;-7.30;100.00
44131;BME280;29792;48.726;9.248;2022-12-18T08:51:18;98078.63;;;-7.07;100.00
44131;BME280;29792;48.726;9.248;2022-12-18T08:53:44;98084.56;;;-6.85;100.00
44131;BME280;29792;48.726;9.248;2022-12-18T08:56:10;98075.56;;;-6.62;100.00
44131;BME280;29792;48.726;9.248;2022-12-18T08:58:35;98073.97;;;-6.46;100.00
44131;BME280;29792;48.726;9.248;2022-12-18T09:01:01;98075.63;;;-6.44;100.00
44131;BME280;29792;48.726;9.248;2022-12-18T09:03:27;98071.50;;;-6.39;100.00
44131;BME280;29792;48.726;9.248;2022-12-18T09:05:52;98063.22;;;-6.30;100.00
44131;BME280;29792;48.726;9.248;2022-12-18T09:08:17;98063.25;;;-6.24;100.00
44131;BME280;29792;48.726;9.248;2022-12-18T09:10:44;98061.59;;;-6.25;100.00
44131;BME280;29792;48.726;9.248;2022-12-18T09:13:11;98057.41;;;-6.31;100.00
44131;BME280;29792;48.726;9.248;2022-12-18T09:15:47;98050.81;;;-6.20;100.00
44131;BME280;29792;48.726;9.248;2022-12-18T09:18:14;98054.97;;;-6.11;100.00
44131;BME280;29792;48.726;9.248;2022-12-18T09:20:40;98064.16;;;-5.96;100.00
44131;BME280;29792;48.726;9.248;2022-12-18T09:23:06;98062.47;;;-5.81;100.00
44131;BME280;29792;48.726;9.248;2022-12-18T09:25:33;98055.00;;;-5.76;100.00
44131;BME280;29792;48.726;9.248;2022-12-18T09:28:05;98056.66;;;-5.70;100.00
44131;BME280;29792;48.726;9.248;2022-12-18T09:30:31;98062.47;;;-5.67;100.00
44131;BME280;29792;48.726;9.248;2022-12-18T09:32:58;98056.69;;;-5.61;100.00
44131;BME280;29792;48.726;9.248;2022-12-18T09:35:23;98053.34;;;-5.50;100.00
44131;BME280;29792;48.726;9.248;2022-12-18T09:37:49;98055.00;;;-5.58;100.00
44131;BME280;29792;48.726;9.248;2022-12-18T09:40:16;98053.34;;;-5.39;100.00
44131;BME280;29792;48.726;9.248;2022-12-18T09:42:46;98050.81;;;-5.16;100.00
44131;BME280;29792;48.726;9.248;2022-12-18T09:45:14;98049.13;;;-4.90;100.00
44131;BME280;29792;48.726;9.248;2022-12-18T09:47:42;98050.75;;;-4.75;100.00
44131;BME280;29792;48.726;9.248;2022-12-18T09:50:26;98047.34;;;-4.54;100.00
44131;BME280;29792;48.726;9.248;2022-12-18T09:52:57;98038.88;;;-4.29;100.00
44131;BME280;29792;48.726;9.248;2022-12-18T09:55:30;98030.50;;;-4.14;100.00
44131;BME280;29792;48.726;9.248;2022-12-18T09:58:06;98019.56;;;-4.00;100.00
44131;BME280;29792;48.726;9.248;2022-12-18T10:00:35;98028.59;;;-3.80;99.78
44131;BME280;29792;48.726;9.248;2022-12-18T10:03:10;98029.47;;;-3.83;98.82
44131;BME280;29792;48.726;9.248;2022-12-18T10:06:07;98033.53;;;-3.68;97.47
44131;BME280;29792;48.726;9.248;2022-12-18T10:09:00;98035.91;;;-3.53;97.14
44131;BME280;29792;48.726;9.248;2022-12-18T10:17:59;98027.75;;;-2.85;95.36
44131;BME280;29792;48.726;9.248;2022-12-18T10:20:47;98030.69;;;-2.51;95.54
44131;BME280;29792;48.726;9.248;2022-12-18T10:23:33;98040.41;;;-2.25;94.30
44131;BME280;29792;48.726;9.248;2022-12-18T10:26:05;98041.88;;;-2.09;92.87
44131;BME280;29792;48.726;9.248;2022-12-18T10:28:33;98046.75;;;-1.98;91.93
44131;BME280;29792;48.726;9.248;2022-12-18T10:30:59;98044.88;;;-1.82;91.91
44131;BME280;29792;48.726;9.248;2022-12-18T10:33:28;98053.53;;;-1.46;91.65
44131;BME280;29792;48.726;9.248;2022-12-18T10:35:54;98041.78;;;-0.95;91.70
44131;BME280;29792;48.726;9.248;2022-12-18T10:38:25;98022.16;;;-0.33;89.95
44131;BME280;29792;48.726;9.248;2022-12-18T10:44:11;98042.53;;;0.67;82.67
44131;BME280;29792;48.726;9.248;2022-12-18T10:46:37;98035.78;;;0.69;79.01
44131;BME280;29792;48.726;9.248;2022-12-18T10:49:02;98042.88;;;0.53;77.70
44131;BME280;29792;48.726;9.248;2022-12-18T10:51:30;98043.84;;;0.83;78.73
44131;BME280;29792;48.726;9.248;2022-12-18T10:54:13;98040.09;;;1.30;77.55
44131;BME280;29792;48.726;9.248;2022-12-18T10:56:39;98032.69;;;1.55;74.79
44131;BME280;29792;48.726;9.248;2022-12-18T10:59:07;98037.63;;;1.60;72.74
44131;BME280;29792;48.726;9.248;2022-12-18T11:01:53;98037.63;;;1.29;69.75
44131;BME280;29792;48.726;9.248;2022-12-18T11:04:31;98046.91;;;0.96;68.90
44131;BME280;29792;48.726;9.248;2022-12-18T11:07:00;98042.78;;;0.92;69.29
44131;BME280;29792;48.726;9.248;2022-12-18T11:11:56;98044.47;;;0.22;70.14
44131;BME280;29792;48.726;9.248;2022-12-18T11:17:21;98024.88;;;-0.04;71.80
44131;BME280;29792;48.726;9.248;2022-12-18T11:19:58;98025.38;;;-0.27;72.54
44131;BME280;29792;48.726;9.248;2022-12-18T11:22:33;98026.72;;;-0.52;73.36
44131;BME280;29792;48.726;9.248;2022-12-18T11:25:01;98013.88;;;-0.82;74.23
44131;BME280;29792;48.726;9.248;2022-12-18T11:27:28;98017.56;;;-0.99;75.12
44131;BME280;29792;48.726;9.248;2022-12-18T11:30:08;98009.47;;;-1.15;76.94
44131;BME280;29792;48.726;9.248;2022-12-18T11:32:37;98014.47;;;-1.13;78.56
44131;BME280;29792;48.726;9.248;2022-12-18T11:35:24;98011.34;;;-1.29;78.88
44131;BME280;29792;48.726;9.248;2022-12-18T11:38:04;98003.44;;;-1.56;79.88
44131;BME280;29792;48.726;9.248;2022-12-18T11:40:36;98012.84;;;-1.70;81.09
44131;BME280;29792;48.726;9.248;2022-12-18T11:46:08;98014.13;;;-1.97;82.54
44131;BME280;29792;48.726;9.248;2022-12-18T11:48:49;98006.44;;;-1.87;83.56
44131;BME280;29792;48.726;9.248;2022-12-18T11:51:34;97998.09;;;-1.88;83.28
44131;BME280;29792;48.726;9.248;2022-12-18T11:54:11;98000.72;;;-1.97;84.28
44131;BME280;29792;48.726;9.248;2022-12-18T11:56:44;97998.88;;;-1.86;85.97
44131;BME280;29792;48.726;9.248;2022-12-18T12:05:00;97999.75;;;-1.87;86.18
44131;BME280;29792;48.726;9.248;2022-12-18T12:10:20;97983.03;;;-1.89;86.98
44131;BME280;29792;48.726;9.248;2022-12-18T12:21:28;97978.16;;;-1.99;87.55
44131;BME280;29792;48.726;9.248;2022-12-18T12:27:01;97976.84;;;-2.22;89.73
44131;BME280;29792;48.726;9.248;2022-12-18T12:38:11;97969.94;;;-2.10;91.30
44131;BME280;29792;48.726;9.248;2022-12-18T12:40:46;97968.13;;;-2.00;91.80
44131;BME280;29792;48.726;9.248;2022-12-18T12:45:52;97971.25;;;-1.84;92.25
44131;BME280;29792;48.726;9.248;2022-12-18T12:48:33;97962.69;;;-1.71;91.86
44131;BME280;29792;48.726;9.248;2022-12-18T12:51:08;97965.78;;;-1.57;91.75
44131;BME280;29792;48.726;9.248;2022-12-18T12:53:37;97961.38;;;-1.44;91.55
44131;BME280;29792;48.726;9.248;2022-12-18T12:56:04;97972.19;;;-1.39;91.44
44131;BME280;29792;48.726;9.248;2022-12-18T12:58:55;97974.63;;;-1.35;90.62
44131;BME280;29792;48.726;9.248;2022-12-18T13:01:34;97973.59;;;-1.25;91.36
44131;BME280;29792;48.726;9.248;2022-12-18T13:07:17;97981.59;;;-1.04;91.26
44131;BME280;29792;48.726;9.248;2022-12-18T13:12:36;97975.38;;;-0.85;91.27
44131;BME280;29792;48.726;9.248;2022-12-18T13:15:32;97976.03;;;-0.75;90.64
44131;BME280;29792;48.726;9.248;2022-12-18T13:23:26;97985.44;;;-0.44;89.76
44131;BME280;29792;48.726;9.248;2022-12-18T13:34:21;97971.50;;;-0.58;87.07
44131;BME280;29792;48.726;9.248;2022-12-18T13:36:47;97968.28;;;-0.65;87.61
44131;BME280;29792;48.726;9.248;2022-12-18T13:41:45;97969.69;;;-0.95;87.67
44131;BME280;29792;48.726;9.248;2022-12-18T13:44:28;97969.97;;;-1.08;88.28
44131;BME280;29792;48.726;9.248;2022-12-18T13:46:56;97966.03;;;-1.23;87.99
44131;BME280;29792;48.726;9.248;2022-12-18T13:49:24;97968.78;;;-1.37;88.59
44131;BME280;29792;48.726;9.248;2022-12-18T13:51:53;97964.09;;;-1.55;89.80
44131;BME280;29792;48.726;9.248;2022-12-18T13:54:24;97967.63;;;-1.67;90.02
44131;BME280;29792;48.726;9.248;2022-12-18T13:56:52;97971.69;;;-1.61;91.01
44131;BME280;29792;48.726;9.248;2022-12-18T13:59:26;97967.59;;;-1.64;91.38
44131;BME280;29792;48.726;9.248;2022-12-18T14:01:54;97967.44;;;-1.56;92.11
44131;BME280;29792;48.726;9.248;2022-12-18T14:06:53;97970.50;;;-1.39;93.25
44131;BME280;29792;48.726;9.248;2022-12-18T14:09:24;97964.59;;;-1.36;92.90
44131;BME280;29792;48.726;9.248;2022-12-18T14:11:50;97974.69;;;-1.39;92.15
44131;BME280;29792;48.726;9.248;2022-12-18T14:14:17;97972.19;;;-1.39;92.18
44131;BME280;29792;48.726;9.248;2022-12-18T14:16:43;97965.63;;;-1.48;92.01
44131;BME280;29792;48.726;9.248;2022-12-18T14:19:14;97980.25;;;-1.71;91.33
44131;BME280;29792;48.726;9.248;2022-12-18T14:21:45;97975.69;;;-2.02;91.54
44131;BME280;29792;48.726;9.248;2022-12-18T14:26:42;97976.81;;;-2.21;92.80
44131;BME280;29792;48.726;9.248;2022-12-18T14:29:25;97976.84;;;-2.22;93.66